グアダラハラ の空港の天気 - METARとTAF

ドン・ミゲル・イダルゴ・イ・コスティージャ国際空港 ( MMGL / GDL ) - メキシコ ハリスコ州グアダラハラ
飛行場実況気象(Metar)
観測時間10/17 22:48 CDT (10/18 03:48 UTC)
風向・風速静穏 0m/s
視程10km以上
天気現象
全天の8割程度の雲 雲底高度 2740m
気温19℃
湿度73%
気圧1021hPa
METARMMGL 180348Z 00000KT 10SM BKN090 19/14 A3016 RMK 8/030
過去の天気等 Google飛行場航空写真 Wunderground天気予報

過去48時間のMETAR

飛行場予報(TAF)
発表時間: 10/17 18:27 CDT (10/17 23:27 UTC)
予報対象時間: 17日19時 CDT ~ 19日1時 CDT
風向・風速東南東 3m/s
視程10km以上
全天の4割程度の積乱雲 雲底高度 610m
全天の8割程度の雲 雲底高度 2440m
全天の8割程度の雲 雲底高度 9140m
17日19時 CDT ~ 17日22時 CDT に一時的に
視程10km以上
天気現象弱い雨
全天の8割程度の積乱雲 雲底高度 610m
全天の8割程度の雲 雲底高度 2440m
17日23時 CDT から
風向・風速静穏
視程10km以上
全天の4割程度の雲 雲底高度 610m
全天の8割程度の雲 雲底高度 2440m
18日4時 CDT ~ 18日5時 CDT に徐々に
視程8050m
天気現象もや 煙霧
全天の8割程度の雲 雲底高度 610m
18日6時 CDT ~ 18日9時 CDT に一時的に
視程4830m
天気現象もや 煙霧
18日12時 CDT から
風向・風速東 4m/s
視程10km以上
全天の4割程度の雲 雲底高度 610m
全天の8割程度の雲 雲底高度 7620m
18日16時 CDT ~ 18日17時 CDT に徐々に
全天の8割程度の積乱雲 雲底高度 610m
18日17時 CDT から 確率 40% で
視程8050m
天気現象弱い雷雨
TAF MMGL 172327Z 1800/1906 11006KT P6SM SCT020CB BKN080 BKN300 TX27/1821Z TN16/1812Z
TEMPO 1800/1803 6SM -RA BKN020CB BKN080
FM180400 00000KT P6SM SCT020 BKN080
BECMG 1809/1810 5SM BR HZ BKN020
TEMPO 1811/1814 3SM BR HZ
FM181700 08008KT P6SM SCT020 BKN250
BECMG 1821/1822 BKN020CB
PROB40 1822/1903 5SM -TSRA